sensor_id;sensor_type;location;lat;lon;timestamp;pressure;altitude;pressure_sealevel;temperature;humidity
39769;BME280;38939;47.824;14.642;2022-07-30T00:00:30;96906.34;;;20.30;85.76
39769;BME280;38939;47.824;14.642;2022-07-30T00:01:32;96903.41;;;20.32;85.57
39769;BME280;38939;47.824;14.642;2022-07-30T00:02:36;96905.00;;;20.33;85.88
39769;BME280;38939;47.824;14.642;2022-07-30T00:03:38;96910.31;;;20.33;86.55
39769;BME280;38939;47.824;14.642;2022-07-30T00:04:41;96909.50;;;20.32;86.59
39769;BME280;38939;47.824;14.642;2022-07-30T00:05:43;96903.13;;;20.33;86.46
39769;BME280;38939;47.824;14.642;2022-07-30T00:06:45;96901.28;;;20.34;86.43
39769;BME280;38939;47.824;14.642;2022-07-30T00:07:46;96895.44;;;20.32;86.92
39769;BME280;38939;47.824;14.642;2022-07-30T00:08:48;96894.91;;;20.30;86.64
39769;BME280;38939;47.824;14.642;2022-07-30T00:09:50;96895.19;;;20.28;86.17
39769;BME280;38939;47.824;14.642;2022-07-30T00:10:52;96893.59;;;20.27;86.10
39769;BME280;38939;47.824;14.642;2022-07-30T00:11:54;96894.38;;;20.28;85.89
39769;BME280;38939;47.824;14.642;2022-07-30T00:12:56;96888.03;;;20.29;85.96
39769;BME280;38939;47.824;14.642;2022-07-30T00:13:57;96882.75;;;20.29;86.01
39769;BME280;38939;47.824;14.642;2022-07-30T00:14:59;96886.97;;;20.30;85.71
39769;BME280;38939;47.824;14.642;2022-07-30T00:16:01;96891.75;;;20.33;85.87
39769;BME280;38939;47.824;14.642;2022-07-30T00:17:03;96894.41;;;20.33;85.97
39769;BME280;38939;47.824;14.642;2022-07-30T00:18:05;96883.81;;;20.33;85.86
39769;BME280;38939;47.824;14.642;2022-07-30T00:19:08;96881.16;;;20.33;86.65
39769;BME280;38939;47.824;14.642;2022-07-30T00:20:10;96879.53;;;20.32;86.65
39769;BME280;38939;47.824;14.642;2022-07-30T00:21:14;96886.44;;;20.33;86.66
39769;BME280;38939;47.824;14.642;2022-07-30T00:22:35;96887.22;;;20.33;86.37
39769;BME280;38939;47.824;14.642;2022-07-30T00:23:37;96893.31;;;20.34;86.20
39769;BME280;38939;47.824;14.642;2022-07-30T00:24:39;96891.50;;;20.34;86.29
39769;BME280;38939;47.824;14.642;2022-07-30T00:25:41;96888.03;;;20.34;86.30
39769;BME280;38939;47.824;14.642;2022-07-30T00:26:43;96886.44;;;20.33;86.65
39769;BME280;38939;47.824;14.642;2022-07-30T00:27:44;96891.22;;;20.31;86.76
39769;BME280;38939;47.824;14.642;2022-07-30T00:28:46;96886.97;;;20.30;86.38
39769;BME280;38939;47.824;14.642;2022-07-30T00:29:48;96892.28;;;20.25;87.20
39769;BME280;38939;47.824;14.642;2022-07-30T00:30:51;96884.84;;;20.22;87.23
39769;BME280;38939;47.824;14.642;2022-07-30T00:31:56;96895.97;;;20.18;87.56
39769;BME280;38939;47.824;14.642;2022-07-30T00:32:58;96883.00;;;20.17;87.22
39769;BME280;38939;47.824;14.642;2022-07-30T00:34:00;96883.00;;;20.17;86.88
39769;BME280;38939;47.824;14.642;2022-07-30T00:35:02;96883.00;;;20.17;86.67
39769;BME280;38939;47.824;14.642;2022-07-30T00:36:04;96889.06;;;20.17;86.63
39769;BME280;38939;47.824;14.642;2022-07-30T00:37:05;96889.59;;;20.19;86.42
39769;BME280;38939;47.824;14.642;2022-07-30T00:38:07;96893.34;;;20.18;86.79
39769;BME280;38939;47.824;14.642;2022-07-30T00:39:09;96887.25;;;20.18;86.60
39769;BME280;38939;47.824;14.642;2022-07-30T00:40:11;96885.63;;;20.17;86.49
39769;BME280;38939;47.824;14.642;2022-07-30T00:41:13;96884.84;;;20.16;86.20
39769;BME280;38939;47.824;14.642;2022-07-30T00:42:15;96883.78;;;20.17;86.18
39769;BME280;38939;47.824;14.642;2022-07-30T00:43:23;96876.66;;;20.18;86.23
39769;BME280;38939;47.824;14.642;2022-07-30T00:44:25;96876.38;;;20.19;86.22
39769;BME280;38939;47.824;14.642;2022-07-30T00:45:27;96872.13;;;20.18;86.37
39769;BME280;38939;47.824;14.642;2022-07-30T00:46:29;96869.50;;;20.18;86.50
39769;BME280;38939;47.824;14.642;2022-07-30T00:47:31;96880.88;;;20.19;86.51
39769;BME280;38939;47.824;14.642;2022-07-30T00:48:33;96870.28;;;20.19;86.37
39769;BME280;38939;47.824;14.642;2022-07-30T00:49:35;96869.50;;;20.18;86.41
39769;BME280;38939;47.824;14.642;2022-07-30T00:50:42;96868.69;;;20.18;86.38
39769;BME280;38939;47.824;14.642;2022-07-30T00:51:45;96864.97;;;20.19;86.26
39769;BME280;38939;47.824;14.642;2022-07-30T00:52:47;96867.38;;;20.21;86.41
39769;BME280;38939;47.824;14.642;2022-07-30T00:53:49;96867.38;;;20.21;86.34
39769;BME280;38939;47.824;14.642;2022-07-30T00:54:51;96858.09;;;20.18;86.81
39769;BME280;38939;47.824;14.642;2022-07-30T00:55:53;96863.13;;;20.14;87.04
39769;BME280;38939;47.824;14.642;2022-07-30T00:56:55;96871.34;;;20.13;86.89
39769;BME280;38939;47.824;14.642;2022-07-30T00:57:56;96868.16;;;20.11;87.07
39769;BME280;38939;47.824;14.642;2022-07-30T00:58:58;96862.84;;;20.11;87.09
39769;BME280;38939;47.824;14.642;2022-07-30T01:00:00;96856.22;;;20.13;87.11
39769;BME280;38939;47.824;14.642;2022-07-30T01:01:02;96865.78;;;20.14;87.25
39769;BME280;38939;47.824;14.642;2022-07-30T01:02:04;96862.88;;;20.16;86.83
39769;BME280;38939;47.824;14.642;2022-07-30T01:03:06;96867.88;;;20.17;86.62
39769;BME280;38939;47.824;14.642;2022-07-30T01:04:08;96851.72;;;20.19;86.55
39769;BME280;38939;47.824;14.642;2022-07-30T01:05:12;96851.47;;;20.21;86.47
39769;BME280;38939;47.824;14.642;2022-07-30T01:06:14;96853.84;;;20.22;86.32
39769;BME280;38939;47.824;14.642;2022-07-30T01:07:16;96859.16;;;20.22;86.64
39769;BME280;38939;47.824;14.642;2022-07-30T01:08:18;96848.56;;;20.22;86.89
39769;BME280;38939;47.824;14.642;2022-07-30T01:09:20;96850.41;;;20.22;86.83
39769;BME280;38939;47.824;14.642;2022-07-30T01:10:22;96844.06;;;20.23;86.79
39769;BME280;38939;47.824;14.642;2022-07-30T01:11:25;96850.69;;;20.20;86.73
39769;BME280;38939;47.824;14.642;2022-07-30T01:12:29;96853.59;;;20.18;86.42
39769;BME280;38939;47.824;14.642;2022-07-30T01:13:32;96851.97;;;20.17;87.20
39769;BME280;38939;47.824;14.642;2022-07-30T01:14:34;96849.63;;;20.16;86.93
39769;BME280;38939;47.824;14.642;2022-07-30T01:15:36;96847.75;;;20.16;86.58
39769;BME280;38939;47.824;14.642;2022-07-30T01:16:39;96846.97;;;20.16;86.28
39769;BME280;38939;47.824;14.642;2022-07-30T01:17:43;96843.50;;;20.15;86.39
39769;BME280;38939;47.824;14.642;2022-07-30T01:18:50;96838.50;;;20.14;86.96
39769;BME280;38939;47.824;14.642;2022-07-30T01:20:12;96843.78;;;20.14;87.22
39769;BME280;38939;47.824;14.642;2022-07-30T01:21:17;96833.72;;;20.11;87.52
39769;BME280;38939;47.824;14.642;2022-07-30T01:24:29;96841.38;;;20.07;87.21
39769;BME280;38939;47.824;14.642;2022-07-30T01:26:19;96843.00;;;20.08;87.12
39769;BME280;38939;47.824;14.642;2022-07-30T01:26:56;96834.78;;;20.10;86.64
39769;BME280;38939;47.824;14.642;2022-07-30T01:28:02;96831.31;;;20.09;86.86
39769;BME280;38939;47.824;14.642;2022-07-30T01:29:05;96837.97;;;20.12;86.65
39769;BME280;38939;47.824;14.642;2022-07-30T01:30:08;96839.00;;;20.11;86.79
39769;BME280;38939;47.824;14.642;2022-07-30T01:31:11;96836.09;;;20.07;86.99
39769;BME280;38939;47.824;14.642;2022-07-30T01:32:14;96832.63;;;20.02;86.87
39769;BME280;38939;47.824;14.642;2022-07-30T01:33:17;96833.44;;;20.02;86.99
39769;BME280;38939;47.824;14.642;2022-07-30T01:34:19;96836.09;;;20.02;87.11
39769;BME280;38939;47.824;14.642;2022-07-30T01:35:22;96835.28;;;20.02;87.53
39769;BME280;38939;47.824;14.642;2022-07-30T01:36:25;96836.88;;;19.97;87.92
39769;BME280;38939;47.824;14.642;2022-07-30T01:37:28;96837.16;;;19.96;88.03
39769;BME280;38939;47.824;14.642;2022-07-30T01:38:29;96834.75;;;19.99;87.91
39769;BME280;38939;47.824;14.642;2022-07-30T01:39:36;96831.06;;;20.01;87.61
39769;BME280;38939;47.824;14.642;2022-07-30T01:40:38;96836.63;;;20.04;87.29
39769;BME280;38939;47.824;14.642;2022-07-30T01:41:40;96830.78;;;20.07;87.08
39769;BME280;38939;47.824;14.642;2022-07-30T01:42:42;96836.09;;;20.07;86.82
39769;BME280;38939;47.824;14.642;2022-07-30T01:43:45;96833.72;;;20.06;87.01
39769;BME280;38939;47.824;14.642;2022-07-30T01:44:47;96825.78;;;20.06;87.15
39769;BME280;38939;47.824;14.642;2022-07-30T01:45:50;96829.22;;;20.06;86.84
39769;BME280;38939;47.824;14.642;2022-07-30T01:46:53;96829.22;;;20.06;86.89
39769;BME280;38939;47.824;14.642;2022-07-30T01:47:57;96818.63;;;20.06;86.89
39769;BME280;38939;47.824;14.642;2022-07-30T01:49:00;96838.72;;;20.07;86.63
39769;BME280;38939;47.824;14.642;2022-07-30T01:50:03;96833.72;;;20.06;86.29
39769;BME280;38939;47.824;14.642;2022-07-30T01:51:11;96835.56;;;20.05;85.88
39769;BME280;38939;47.824;14.642;2022-07-30T01:52:14;96827.59;;;20.05;85.93
39769;BME280;38939;47.824;14.642;2022-07-30T01:53:18;96829.22;;;20.06;85.75
39769;BME280;38939;47.824;14.642;2022-07-30T01:54:22;96831.34;;;20.04;86.09
39769;BME280;38939;47.824;14.642;2022-07-30T01:55:33;96829.19;;;20.01;86.49
39769;BME280;38939;47.824;14.642;2022-07-30T01:56:36;96830.78;;;19.97;86.96
39769;BME280;38939;47.824;14.642;2022-07-30T01:57:39;96841.63;;;19.95;87.01
39769;BME280;38939;47.824;14.642;2022-07-30T01:58:41;96833.69;;;19.95;86.83
39769;BME280;38939;47.824;14.642;2022-07-30T01:59:44;96836.09;;;19.97;87.10
39769;BME280;38939;47.824;14.642;2022-07-30T02:00:48;96824.69;;;19.91;87.22
39769;BME280;38939;47.824;14.642;2022-07-30T02:01:50;96834.75;;;19.84;87.64
39769;BME280;38939;47.824;14.642;2022-07-30T02:02:52;96841.09;;;19.78;87.94
39769;BME280;38939;47.824;14.642;2022-07-30T02:03:54;96833.94;;;19.78;87.92
39769;BME280;38939;47.824;14.642;2022-07-30T02:04:56;96837.91;;;19.81;87.75
39769;BME280;38939;47.824;14.642;2022-07-30T02:06:03;96834.47;;;19.81;87.93
39769;BME280;38939;47.824;14.642;2022-07-30T02:07:12;96837.13;;;19.81;87.50
39769;BME280;38939;47.824;14.642;2022-07-30T02:08:21;96826.53;;;19.81;87.42
39769;BME280;38939;47.824;14.642;2022-07-30T02:09:27;96835.00;;;19.83;87.13
39769;BME280;38939;47.824;14.642;2022-07-30T02:10:32;96831.31;;;19.84;87.13
39769;BME280;38939;47.824;14.642;2022-07-30T02:11:36;96827.06;;;19.83;87.08
39769;BME280;38939;47.824;14.642;2022-07-30T02:12:59;96831.56;;;19.77;87.59
39769;BME280;38939;47.824;14.642;2022-07-30T02:14:08;96830.75;;;19.76;87.59
39769;BME280;38939;47.824;14.642;2022-07-30T02:16:18;96830.50;;;19.83;87.57
39769;BME280;38939;47.824;14.642;2022-07-30T02:17:23;96836.06;;;19.87;87.52
39769;BME280;38939;47.824;14.642;2022-07-30T02:19:45;96829.72;;;19.88;87.43
39769;BME280;38939;47.824;14.642;2022-07-30T02:20:51;96828.91;;;19.87;87.74
39769;BME280;38939;47.824;14.642;2022-07-30T02:22:02;96828.38;;;19.85;87.57
39769;BME280;38939;47.824;14.642;2022-07-30T02:23:09;96822.84;;;19.82;87.58
39769;BME280;38939;47.824;14.642;2022-07-30T02:24:12;96831.03;;;19.80;87.67
39769;BME280;38939;47.824;14.642;2022-07-30T02:25:16;96824.97;;;19.80;87.67
39769;BME280;38939;47.824;14.642;2022-07-30T02:26:20;96832.09;;;19.79;88.01
39769;BME280;38939;47.824;14.642;2022-07-30T02:27:27;96833.69;;;19.80;88.19
39769;BME280;38939;47.824;14.642;2022-07-30T02:28:31;96831.03;;;19.80;88.60
39769;BME280;38939;47.824;14.642;2022-07-30T02:29:35;96825.22;;;19.78;88.56
39769;BME280;38939;47.824;14.642;2022-07-30T02:30:39;96823.34;;;19.78;88.64
39769;BME280;38939;47.824;14.642;2022-07-30T02:31:42;96828.91;;;19.77;88.65
39769;BME280;38939;47.824;14.642;2022-07-30T02:32:46;96826.78;;;19.79;88.53
39769;BME280;38939;47.824;14.642;2022-07-30T02:33:48;96829.19;;;19.81;88.44
39769;BME280;38939;47.824;14.642;2022-07-30T02:34:52;96829.19;;;19.75;88.84
39769;BME280;38939;47.824;14.642;2022-07-30T02:35:56;96826.78;;;19.74;89.09
39769;BME280;38939;47.824;14.642;2022-07-30T02:36:59;96823.06;;;19.75;88.97
39769;BME280;38939;47.824;14.642;2022-07-30T02:38:02;96825.19;;;19.73;89.30
39769;BME280;38939;47.824;14.642;2022-07-30T02:39:04;96824.16;;;19.74;88.99
39769;BME280;38939;47.824;14.642;2022-07-30T02:40:07;96828.13;;;19.76;88.50
39769;BME280;38939;47.824;14.642;2022-07-30T02:41:09;96825.22;;;19.78;87.92
39769;BME280;38939;47.824;14.642;2022-07-30T02:42:12;96819.66;;;19.80;87.98
39769;BME280;38939;47.824;14.642;2022-07-30T02:43:16;96819.38;;;19.81;87.98
39769;BME280;38939;47.824;14.642;2022-07-30T02:44:18;96822.84;;;19.82;88.14
39769;BME280;38939;47.824;14.642;2022-07-30T02:45:21;96814.88;;;19.76;87.71
39769;BME280;38939;47.824;14.642;2022-07-30T02:46:24;96822.81;;;19.76;87.58
39769;BME280;38939;47.824;14.642;2022-07-30T02:47:27;96818.06;;;19.78;87.46
39769;BME280;38939;47.824;14.642;2022-07-30T02:48:30;96821.50;;;19.79;87.30
39769;BME280;38939;47.824;14.642;2022-07-30T02:49:35;96814.38;;;19.80;87.51
39769;BME280;38939;47.824;14.642;2022-07-30T02:50:40;96815.41;;;19.78;87.23
39769;BME280;38939;47.824;14.642;2022-07-30T02:51:42;96810.38;;;19.77;87.26
39769;BME280;38939;47.824;14.642;2022-07-30T02:52:47;96814.09;;;19.76;87.46
39769;BME280;38939;47.824;14.642;2022-07-30T02:53:50;96814.09;;;19.76;87.32
39769;BME280;38939;47.824;14.642;2022-07-30T02:54:52;96817.28;;;19.78;87.07
39769;BME280;38939;47.824;14.642;2022-07-30T02:55:57;96817.81;;;19.80;87.13
39769;BME280;38939;47.824;14.642;2022-07-30T02:57:00;96812.50;;;19.80;86.84
39769;BME280;38939;47.824;14.642;2022-07-30T02:58:04;96813.81;;;19.83;87.09
39769;BME280;38939;47.824;14.642;2022-07-30T02:59:06;96818.34;;;19.82;87.27
39769;BME280;38939;47.824;14.642;2022-07-30T03:00:10;96819.91;;;19.83;87.32
39769;BME280;38939;47.824;14.642;2022-07-30T03:01:13;96809.31;;;19.83;87.33
39769;BME280;38939;47.824;14.642;2022-07-30T03:02:16;96815.44;;;19.84;87.28
39769;BME280;38939;47.824;14.642;2022-07-30T03:03:29;96814.06;;;19.81;87.46
39769;BME280;38939;47.824;14.642;2022-07-30T03:04:31;96807.22;;;19.80;87.95
39769;BME280;38939;47.824;14.642;2022-07-30T03:05:34;96818.59;;;19.75;88.15
39769;BME280;38939;47.824;14.642;2022-07-30T03:06:36;96811.94;;;19.73;88.00
39769;BME280;38939;47.824;14.642;2022-07-30T03:07:40;96810.91;;;19.74;88.38
39769;BME280;38939;47.824;14.642;2022-07-30T03:08:42;96813.81;;;19.72;88.45
39769;BME280;38939;47.824;14.642;2022-07-30T03:09:46;96811.41;;;19.71;88.25
39769;BME280;38939;47.824;14.642;2022-07-30T03:10:53;96819.09;;;19.72;88.26
39769;BME280;38939;47.824;14.642;2022-07-30T03:11:55;96812.78;;;19.73;88.17
39769;BME280;38939;47.824;14.642;2022-07-30T03:12:58;96808.00;;;19.75;88.04
39769;BME280;38939;47.824;14.642;2022-07-30T03:14:01;96816.47;;;19.77;88.08
39769;BME280;38939;47.824;14.642;2022-07-30T03:15:04;96816.19;;;19.79;87.72
39769;BME280;38939;47.824;14.642;2022-07-30T03:16:08;96815.41;;;19.78;87.60
39769;BME280;38939;47.824;14.642;2022-07-30T03:17:10;96809.31;;;19.78;87.50
39769;BME280;38939;47.824;14.642;2022-07-30T03:18:15;96812.75;;;19.78;87.34
39769;BME280;38939;47.824;14.642;2022-07-30T03:19:19;96824.97;;;19.80;87.33
39769;BME280;38939;47.824;14.642;2022-07-30T03:20:24;96820.19;;;19.82;87.10
39769;BME280;38939;47.824;14.642;2022-07-30T03:21:27;96811.19;;;19.83;87.09
39769;BME280;38939;47.824;14.642;2022-07-30T03:22:29;96808.53;;;19.83;87.04
39769;BME280;38939;47.824;14.642;2022-07-30T03:23:33;96818.34;;;19.82;86.98
39769;BME280;38939;47.824;14.642;2022-07-30T03:24:38;96808.25;;;19.79;87.06
39769;BME280;38939;47.824;14.642;2022-07-30T03:25:44;96812.75;;;19.78;87.25
39769;BME280;38939;47.824;14.642;2022-07-30T03:26:48;96817.53;;;19.76;87.39
39769;BME280;38939;47.824;14.642;2022-07-30T03:27:52;96820.16;;;19.76;87.50
39769;BME280;38939;47.824;14.642;2022-07-30T03:28:54;96817.00;;;19.74;87.55
39769;BME280;38939;47.824;14.642;2022-07-30T03:29:56;96816.47;;;19.72;87.66
39769;BME280;38939;47.824;14.642;2022-07-30T03:30:59;96820.13;;;19.66;87.84
39769;BME280;38939;47.824;14.642;2022-07-30T03:32:02;96821.16;;;19.65;88.06
39769;BME280;38939;47.824;14.642;2022-07-30T03:33:07;96825.94;;;19.63;88.05
39769;BME280;38939;47.824;14.642;2022-07-30T03:34:10;96820.63;;;19.63;87.87
39769;BME280;38939;47.824;14.642;2022-07-30T03:35:14;96829.09;;;19.65;87.35
39769;BME280;38939;47.824;14.642;2022-07-30T03:36:20;96820.13;;;19.66;87.32
39769;BME280;38939;47.824;14.642;2022-07-30T03:37:23;96825.16;;;19.68;87.05
39769;BME280;38939;47.824;14.642;2022-07-30T03:38:26;96824.34;;;19.67;86.77
39769;BME280;38939;47.824;14.642;2022-07-30T03:39:33;96827.00;;;19.67;86.85
39769;BME280;38939;47.824;14.642;2022-07-30T03:40:36;96820.63;;;19.63;87.32
39769;BME280;38939;47.824;14.642;2022-07-30T03:41:38;96828.03;;;19.61;87.46
39769;BME280;38939;47.824;14.642;2022-07-30T03:42:40;96826.47;;;19.60;87.08
39769;BME280;38939;47.824;14.642;2022-07-30T03:43:42;96824.59;;;19.61;87.13
39769;BME280;38939;47.824;14.642;2022-07-30T03:44:46;96827.00;;;19.62;87.09
39769;BME280;38939;47.824;14.642;2022-07-30T03:45:48;96828.56;;;19.63;87.23
39769;BME280;38939;47.824;14.642;2022-07-30T03:46:52;96827.53;;;19.64;87.27
39769;BME280;38939;47.824;14.642;2022-07-30T03:47:55;96823.81;;;19.65;87.29
39769;BME280;38939;47.824;14.642;2022-07-30T03:48:58;96836.00;;;19.66;87.29
39769;BME280;38939;47.824;14.642;2022-07-30T03:50:00;96830.72;;;19.66;87.30
39769;BME280;38939;47.824;14.642;2022-07-30T03:51:02;96832.28;;;19.67;87.53
39769;BME280;38939;47.824;14.642;2022-07-30T03:52:07;96826.22;;;19.67;87.69
39769;BME280;38939;47.824;14.642;2022-07-30T03:53:09;96824.91;;;19.69;87.60
39769;BME280;38939;47.824;14.642;2022-07-30T03:54:12;96830.78;;;19.71;87.58
39769;BME280;38939;47.824;14.642;2022-07-30T03:55:14;96835.25;;;19.71;87.51
39769;BME280;38939;47.824;14.642;2022-07-30T03:56:16;96833.13;;;19.73;87.41
39769;BME280;38939;47.824;14.642;2022-07-30T03:57:18;96831.84;;;19.75;87.46
39769;BME280;38939;47.824;14.642;2022-07-30T03:58:21;96831.03;;;19.75;87.49
39769;BME280;38939;47.824;14.642;2022-07-30T03:59:23;96835.28;;;19.76;87.80
39769;BME280;38939;47.824;14.642;2022-07-30T04:00:24;96832.63;;;19.76;87.84
39769;BME280;38939;47.824;14.642;2022-07-30T04:01:27;96834.19;;;19.77;87.79
39769;BME280;38939;47.824;14.642;2022-07-30T04:02:29;96835.00;;;19.77;87.72
39769;BME280;38939;47.824;14.642;2022-07-30T04:03:31;96831.28;;;19.78;87.66
39769;BME280;38939;47.824;14.642;2022-07-30T04:04:33;96828.91;;;19.77;87.52
39769;BME280;38939;47.824;14.642;2022-07-30T04:05:35;96836.06;;;19.76;87.74
39769;BME280;38939;47.824;14.642;2022-07-30T04:06:41;96841.59;;;19.75;87.77
39769;BME280;38939;47.824;14.642;2022-07-30T04:07:43;96835.53;;;19.74;87.73
39769;BME280;38939;47.824;14.642;2022-07-30T04:08:46;96836.59;;;19.73;87.62
39769;BME280;38939;47.824;14.642;2022-07-30T04:09:47;96838.44;;;19.73;87.46
39769;BME280;38939;47.824;14.642;2022-07-30T04:10:49;96843.72;;;19.73;87.55
39769;BME280;38939;47.824;14.642;2022-07-30T04:11:51;96838.19;;;19.74;87.50
39769;BME280;38939;47.824;14.642;2022-07-30T04:12:53;96832.09;;;19.74;87.34
39769;BME280;38939;47.824;14.642;2022-07-30T04:13:56;96837.13;;;19.75;87.22
39769;BME280;38939;47.824;14.642;2022-07-30T04:14:58;96835.28;;;19.76;87.15
39769;BME280;38939;47.824;14.642;2022-07-30T04:16:01;96834.19;;;19.72;87.54
39769;BME280;38939;47.824;14.642;2022-07-30T04:17:27;96834.94;;;19.67;88.08
39769;BME280;38939;47.824;14.642;2022-07-30T04:18:32;96845.00;;;19.65;88.35
39769;BME280;38939;47.824;14.642;2022-07-30T04:19:43;96831.22;;;19.63;89.27
39769;BME280;38939;47.824;14.642;2022-07-30T04:20:47;96839.44;;;19.62;89.58
39769;BME280;38939;47.824;14.642;2022-07-30T04:21:49;96839.44;;;19.62;89.23
39769;BME280;38939;47.824;14.642;2022-07-30T04:22:53;96838.63;;;19.61;89.24
39769;BME280;38939;47.824;14.642;2022-07-30T04:23:55;96840.25;;;19.62;88.96
39769;BME280;38939;47.824;14.642;2022-07-30T04:25:05;96844.22;;;19.65;88.73
39769;BME280;38939;47.824;14.642;2022-07-30T04:26:07;96846.59;;;19.66;88.57
39769;BME280;38939;47.824;14.642;2022-07-30T04:27:10;96848.19;;;19.67;88.37
39769;BME280;38939;47.824;14.642;2022-07-30T04:28:12;96840.22;;;19.67;88.21
39769;BME280;38939;47.824;14.642;2022-07-30T04:29:14;96849.00;;;19.68;88.20
39769;BME280;38939;47.824;14.642;2022-07-30T04:30:19;96848.75;;;19.69;88.01
39769;BME280;38939;47.824;14.642;2022-07-30T04:31:21;96845.28;;;19.69;87.92
39769;BME280;38939;47.824;14.642;2022-07-30T04:32:23;96851.38;;;19.69;87.84
39769;BME280;38939;47.824;14.642;2022-07-30T04:33:25;96854.81;;;19.70;87.79
39769;BME280;38939;47.824;14.642;2022-07-30T04:34:27;96851.94;;;19.71;87.83
39769;BME280;38939;47.824;14.642;2022-07-30T04:35:29;96850.09;;;19.72;87.80
39769;BME280;38939;47.824;14.642;2022-07-30T04:36:51;96848.22;;;19.72;87.71
39769;BME280;38939;47.824;14.642;2022-07-30T04:37:53;96845.59;;;19.72;87.72
39769;BME280;38939;47.824;14.642;2022-07-30T04:38:55;96847.19;;;19.73;87.90
39769;BME280;38939;47.824;14.642;2022-07-30T04:39:57;96850.63;;;19.74;87.96
39769;BME280;38939;47.824;14.642;2022-07-30T04:40:59;96855.13;;;19.73;87.90
39769;BME280;38939;47.824;14.642;2022-07-30T04:42:01;96848.75;;;19.74;87.90
39769;BME280;38939;47.824;14.642;2022-07-30T04:43:03;96858.56;;;19.74;88.00
39769;BME280;38939;47.824;14.642;2022-07-30T04:44:05;96861.22;;;19.74;88.06
39769;BME280;38939;47.824;14.642;2022-07-30T04:45:07;96863.88;;;19.74;88.00
39769;BME280;38939;47.824;14.642;2022-07-30T04:46:12;96864.66;;;19.74;88.09
39769;BME280;38939;47.824;14.642;2022-07-30T04:47:14;96861.47;;;19.72;88.25
39769;BME280;38939;47.824;14.642;2022-07-30T04:48:17;96864.66;;;19.74;88.38
39769;BME280;38939;47.824;14.642;2022-07-30T04:49:18;96866.25;;;19.75;88.31
39769;BME280;38939;47.824;14.642;2022-07-30T04:50:22;96873.13;;;19.76;88.48
39769;BME280;38939;47.824;14.642;2022-07-30T04:51:27;96866.75;;;19.72;88.34
39769;BME280;38939;47.824;14.642;2022-07-30T04:52:30;96868.38;;;19.73;88.33
39769;BME280;38939;47.824;14.642;2022-07-30T04:53:32;96863.88;;;19.74;88.17
39769;BME280;38939;47.824;14.642;2022-07-30T04:54:36;96861.22;;;19.74;87.95
39769;BME280;38939;47.824;14.642;2022-07-30T04:55:39;96864.13;;;19.72;88.11
39769;BME280;38939;47.824;14.642;2022-07-30T04:56:44;96866.19;;;19.70;87.97
39769;BME280;38939;47.824;14.642;2022-07-30T04:57:54;96861.47;;;19.72;88.09
39769;BME280;38939;47.824;14.642;2022-07-30T04:58:57;96863.06;;;19.73;87.84
39769;BME280;38939;47.824;14.642;2022-07-30T04:59:59;96863.06;;;19.73;87.89
39769;BME280;38939;47.824;14.642;2022-07-30T05:01:01;96864.13;;;19.72;87.76
39769;BME280;38939;47.824;14.642;2022-07-30T05:02:05;96865.19;;;19.71;87.77
39769;BME280;38939;47.824;14.642;2022-07-30T05:03:09;96864.38;;;19.71;87.62
39769;BME280;38939;47.824;14.642;2022-07-30T05:04:12;96865.97;;;19.72;87.80
39769;BME280;38939;47.824;14.642;2022-07-30T05:05:14;96859.06;;;19.71;87.68
39769;BME280;38939;47.824;14.642;2022-07-30T05:06:18;96863.56;;;19.70;88.18
39769;BME280;38939;47.824;14.642;2022-07-30T05:07:20;96859.31;;;19.64;88.53
39769;BME280;38939;47.824;14.642;2022-07-30T05:08:23;96869.88;;;19.59;88.96
39769;BME280;38939;47.824;14.642;2022-07-30T05:09:25;96864.56;;;19.59;89.04
39769;BME280;38939;47.824;14.642;2022-07-30T05:10:27;96867.75;;;19.61;88.98
39769;BME280;38939;47.824;14.642;2022-07-30T05:11:30;96866.72;;;19.62;88.85
39769;BME280;38939;47.824;14.642;2022-07-30T05:12:32;96866.72;;;19.62;88.59
39769;BME280;38939;47.824;14.642;2022-07-30T05:13:34;96870.94;;;19.63;88.39
39769;BME280;38939;47.824;14.642;2022-07-30T05:14:38;96873.59;;;19.63;88.62
39769;BME280;38939;47.824;14.642;2022-07-30T05:15:40;96874.66;;;19.62;88.52
39769;BME280;38939;47.824;14.642;2022-07-30T05:16:42;96864.59;;;19.64;88.30
39769;BME280;38939;47.824;14.642;2022-07-30T05:17:45;96868.81;;;19.65;88.32
39769;BME280;38939;47.824;14.642;2022-07-30T05:18:47;96873.88;;;19.67;88.29
39769;BME280;38939;47.824;14.642;2022-07-30T05:19:49;96872.81;;;19.68;88.28
39769;BME280;38939;47.824;14.642;2022-07-30T05:20:52;96876.25;;;19.68;88.14
39769;BME280;38939;47.824;14.642;2022-07-30T05:21:54;96870.97;;;19.68;88.29
39769;BME280;38939;47.824;14.642;2022-07-30T05:22:56;96878.13;;;19.68;88.31
39769;BME280;38939;47.824;14.642;2022-07-30T05:23:58;96880.47;;;19.64;88.10
39769;BME280;38939;47.824;14.642;2022-07-30T05:25:00;96882.59;;;19.62;88.42
39769;BME280;38939;47.824;14.642;2022-07-30T05:26:02;96880.19;;;19.61;88.38
39769;BME280;38939;47.824;14.642;2022-07-30T05:27:04;96877.81;;;19.59;88.18
39769;BME280;38939;47.824;14.642;2022-07-30T05:28:05;96873.31;;;19.59;88.16
39769;BME280;38939;47.824;14.642;2022-07-30T05:29:07;96878.63;;;19.59;88.39
39769;BME280;38939;47.824;14.642;2022-07-30T05:30:19;96881.28;;;19.59;88.41
39769;BME280;38939;47.824;14.642;2022-07-30T05:31:27;96887.34;;;19.60;88.28
39769;BME280;38939;47.824;14.642;2022-07-30T05:32:33;96870.94;;;19.58;87.87
39769;BME280;38939;47.824;14.642;2022-07-30T05:33:36;96881.53;;;19.58;87.78
39769;BME280;38939;47.824;14.642;2022-07-30T05:34:42;96878.88;;;19.58;87.86
39769;BME280;38939;47.824;14.642;2022-07-30T05:35:50;96877.28;;;19.57;87.90
39769;BME280;38939;47.824;14.642;2022-07-30T05:36:52;96875.16;;;19.54;87.99